Terminal Aerodrome Forecast
Issued by NWS

Home | Current Version | Previous Version | Text Only | Print | Product List | Glossary On
Versions: 1 2 3 4 5 6 7 8 9 10 11 12 13 14 15 16 17 18
979
FTUS43 KMPX 221720
TAFRNH
TAF
KRNH 221720Z 2218/2318 03016G24KT 1/2SM SN VV006
      TEMPO 2218/2222 1/4SM +SN BLSN VV003
     FM230000 02015G24KT 1SM -SN BLSN VV008
     FM230400 36013G24KT 3SM BLSN OVC015
     FM230900 34012KT P6SM OVC015=

USA.gov is the U.S. government's official web portal to all federal, state and local government web resources and services.